PWSweather.com
Personal Weather Stations
Station Observations
KM01CL
Kitemaniak 01, Castiglione Del LagoIT 06061

Kitemaniak 01Castiglione Del LagoIT 06061

Lat: 43.133808, Lon: 12.045753

Elevation: 997

Station Type: Ventus W831

High Low Average
Temperature 66.9°F19.4°C 43.9°F6.6°C 52.5°F11.4°C
Dew Point 48.6°F9.2°C 35.3°F1.8°C 40.8°F4.9°C
Winds 13.0 mph 20.9 kmh Calm Calm 3.0 mph WSW4.8 kmh WSW
Wind Gusts 19.0 mph30.6 kmh -- 4.0 mph6.4 kmh
Humidity 94% 34% 67%
Pressure 30.14 in1020.7 mb 29.71 in1006.1 mb -
Precipitation 0.06 in1.5 mm - -
Hour Temp Dew Point Humidity Winds Wind Gusts Pressure Precip Precip Rate Daily Precip Total
12:02 AM 45.7°F7.6°C 43.5°F6.4°C 92% Calm Calm -- 29.70 in1005.8 mb 0.00 in0.0 mm 0.00 in0.0 mm 0.00 in0.0 mm
12:06 AM 45.5°F7.5°C 43.3°F6.3°C 92% Calm Calm -- 29.70 in1005.8 mb 0.00 in0.0 mm 0.00 in0.0 mm 0.00 in0.0 mm
12:10 AM 45.1°F7.3°C 43.8°F6.6°C 95% Calm Calm -- 29.69 in1005.4 mb 0.00 in0.0 mm 0.00 in0.0 mm 0.00 in0.0 mm
12:14 AM 45.0°F7.2°C 43.6°F6.4°C 95% Calm Calm -- 29.70 in1005.8 mb 0.00 in0.0 mm 0.00 in0.0 mm 0.00 in0.0 mm
12:18 AM 44.8°F7.1°C 43.4°F6.3°C 95% Calm Calm -- 29.69 in1005.4 mb 0.00 in0.0 mm 0.00 in0.0 mm 0.00 in0.0 mm
12:22 AM 44.8°F7.1°C 43.2°F6.2°C 94% Calm Calm -- 29.70 in1005.8 mb 0.00 in0.0 mm 0.00 in0.0 mm 0.00 in0.0 mm
12:26 AM 44.6°F7.0°C 43.0°F6.1°C 94% Calm Calm -- 29.70 in1005.8 mb 0.00 in0.0 mm 0.00 in0.0 mm 0.00 in0.0 mm
12:31 AM 44.6°F7.0°C 43.0°F6.1°C 94% Calm Calm -- 29.70 in1005.8 mb 0.00 in0.0 mm 0.00 in0.0 mm 0.00 in0.0 mm
12:35 AM 44.6°F7.0°C 43.0°F6.1°C 94% Calm Calm -- 29.70 in1005.8 mb 0.00 in0.0 mm 0.00 in0.0 mm 0.00 in0.0 mm
12:39 AM 44.6°F7.0°C 43.0°F6.1°C 94% Calm Calm -- 29.69 in1005.4 mb 0.00 in0.0 mm 0.00 in0.0 mm 0.00 in0.0 mm
12:43 AM 44.6°F7.0°C 43.0°F6.1°C 94% Calm Calm -- 29.70 in1005.8 mb 0.00 in0.0 mm 0.00 in0.0 mm 0.00 in0.0 mm
12:47 AM 44.6°F7.0°C 43.0°F6.1°C 94% Calm Calm -- 29.70 in1005.8 mb 0.00 in0.0 mm 0.00 in0.0 mm 0.00 in0.0 mm
12:49 AM 44.4°F6.9°C 42.8°F6.0°C 94% Calm Calm -- 29.71 in1006.1 mb 0.00 in0.0 mm 0.00 in0.0 mm 0.00 in0.0 mm
12:53 AM 44.4°F6.9°C 42.5°F5.8°C 93% Calm Calm -- 29.71 in1006.1 mb 0.00 in0.0 mm 0.00 in0.0 mm 0.00 in0.0 mm
12:57 AM 44.2°F6.8°C 42.4°F5.8°C 93% Calm Calm -- 29.71 in1006.1 mb 0.00 in0.0 mm 0.00 in0.0 mm 0.00 in0.0 mm
01:01 AM 44.1°F6.7°C 42.2°F5.7°C 93% Calm Calm -- 29.71 in1006.1 mb 0.00 in0.0 mm 0.00 in0.0 mm 0.00 in0.0 mm
01:06 AM 44.1°F6.7°C 42.2°F5.7°C 93% Calm Calm -- 29.71 in1006.1 mb 0.00 in0.0 mm 0.00 in0.0 mm 0.00 in0.0 mm
01:10 AM 43.9°F6.6°C 42.0°F5.6°C 93% Calm Calm -- 29.71 in1006.1 mb 0.00 in0.0 mm 0.00 in0.0 mm 0.00 in0.0 mm
01:14 AM 43.9°F6.6°C 42.0°F5.6°C 93% Calm Calm -- 29.71 in1006.1 mb 0.00 in0.0 mm 0.00 in0.0 mm 0.00 in0.0 mm
01:17 AM 43.9°F6.6°C 42.0°F5.6°C 93% Calm Calm -- 29.71 in1006.1 mb 0.00 in0.0 mm 0.00 in0.0 mm 0.00 in0.0 mm
01:19 AM 43.9°F6.6°C 42.0°F5.6°C 93% Calm Calm -- 29.71 in1006.1 mb 0.00 in0.0 mm 0.00 in0.0 mm 0.00 in0.0 mm
01:23 AM 44.1°F6.7°C 42.2°F5.7°C 93% Calm Calm -- 29.71 in1006.1 mb 0.00 in0.0 mm 0.00 in0.0 mm 0.00 in0.0 mm
01:27 AM 44.1°F6.7°C 42.2°F5.7°C 93% Calm Calm -- 29.71 in1006.1 mb 0.00 in0.0 mm 0.00 in0.0 mm 0.00 in0.0 mm
01:31 AM 44.2°F6.8°C 42.4°F5.8°C 93% Calm Calm -- 29.71 in1006.1 mb 0.00 in0.0 mm 0.00 in0.0 mm 0.00 in0.0 mm
01:35 AM 44.4°F6.9°C 42.5°F5.8°C 93% Calm Calm -- 29.72 in1006.4 mb 0.00 in0.0 mm 0.00 in0.0 mm 0.00 in0.0 mm
01:39 AM 44.4°F6.9°C 42.5°F5.8°C 93% Calm Calm -- 29.71 in1006.1 mb 0.00 in0.0 mm 0.00 in0.0 mm 0.00 in0.0 mm
01:44 AM 44.4°F6.9°C 42.5°F5.8°C 93% Calm Calm -- 29.71 in1006.1 mb 0.00 in0.0 mm 0.00 in0.0 mm 0.00 in0.0 mm
01:47 AM 44.4°F6.9°C 42.8°F6.0°C 94% Calm Calm -- 29.71 in1006.1 mb 0.00 in0.0 mm 0.00 in0.0 mm 0.00 in0.0 mm
01:51 AM 44.6°F7.0°C 43.0°F6.1°C 94% Calm Calm -- 29.71 in1006.1 mb 0.00 in0.0 mm 0.00 in0.0 mm 0.00 in0.0 mm
01:55 AM 44.6°F7.0°C 43.0°F6.1°C 94% Calm Calm -- 29.71 in1006.1 mb 0.00 in0.0 mm 0.00 in0.0 mm 0.00 in0.0 mm
01:59 AM 44.6°F7.0°C 43.0°F6.1°C 94% Calm Calm -- 29.71 in1006.1 mb 0.00 in0.0 mm 0.00 in0.0 mm 0.00 in0.0 mm
02:03 AM 44.8°F7.1°C 43.2°F6.2°C 94% Calm Calm -- 29.71 in1006.1 mb 0.00 in0.0 mm 0.00 in0.0 mm 0.00 in0.0 mm
02:07 AM 44.8°F7.1°C 43.2°F6.2°C 94% Calm Calm -- 29.71 in1006.1 mb 0.00 in0.0 mm 0.00 in0.0 mm 0.00 in0.0 mm
02:11 AM 44.8°F7.1°C 43.2°F6.2°C 94% Calm Calm -- 29.72 in1006.4 mb 0.00 in0.0 mm 0.00 in0.0 mm 0.00 in0.0 mm
02:13 AM 45.0°F7.2°C 43.3°F6.3°C 94% Calm Calm -- 29.72 in1006.4 mb 0.00 in0.0 mm 0.00 in0.0 mm 0.00 in0.0 mm
02:17 AM 45.1°F7.3°C 43.5°F6.4°C 94% Calm Calm -- 29.72 in1006.4 mb 0.00 in0.0 mm 0.00 in0.0 mm 0.00 in0.0 mm
02:21 AM 45.3°F7.4°C 43.7°F6.5°C 94% Calm Calm -- 29.71 in1006.1 mb 0.00 in0.0 mm 0.00 in0.0 mm 0.00 in0.0 mm
02:26 AM 45.3°F7.4°C 43.7°F6.5°C 94% 3.8 mph S6.1 kmh S 5.4 mph8.7 kmh 29.71 in1006.1 mb 0.00 in0.0 mm 0.00 in0.0 mm 0.00 in0.0 mm
02:29 AM 45.5°F7.5°C 43.0°F6.1°C 91% Calm Calm -- 29.71 in1006.1 mb 0.00 in0.0 mm 0.00 in0.0 mm 0.00 in0.0 mm
02:33 AM 45.5°F7.5°C 42.7°F5.9°C 90% Calm Calm 3.1 mph5.0 kmh 29.71 in1006.1 mb 0.00 in0.0 mm 0.00 in0.0 mm 0.00 in0.0 mm
02:37 AM 45.7°F7.6°C 42.9°F6.1°C 90% Calm Calm -- 29.71 in1006.1 mb 0.00 in0.0 mm 0.00 in0.0 mm 0.00 in0.0 mm
02:41 AM 45.9°F7.7°C 43.1°F6.2°C 90% 0.7 mph S1.1 kmh S 3.8 mph6.1 kmh 29.71 in1006.1 mb 0.00 in0.0 mm 0.00 in0.0 mm 0.00 in0.0 mm
02:45 AM 46.0°F7.8°C 43.3°F6.3°C 90% Calm Calm -- 29.71 in1006.1 mb 0.00 in0.0 mm 0.00 in0.0 mm 0.00 in0.0 mm
02:50 AM 46.2°F7.9°C 43.2°F6.2°C 89% 1.6 mph S2.6 kmh S 4.5 mph7.2 kmh 29.71 in1006.1 mb 0.00 in0.0 mm 0.00 in0.0 mm 0.00 in0.0 mm
02:51 AM 46.2°F7.9°C 42.9°F6.1°C 88% 3.8 mph SW6.1 kmh SW 5.4 mph8.7 kmh 29.71 in1006.1 mb 0.00 in0.0 mm 0.00 in0.0 mm 0.00 in0.0 mm
02:55 AM 46.4°F8.0°C 42.7°F5.9°C 87% Calm Calm -- 29.71 in1006.1 mb 0.00 in0.0 mm 0.00 in0.0 mm 0.00 in0.0 mm
02:59 AM 46.4°F8.0°C 42.4°F5.8°C 86% Calm Calm -- 29.71 in1006.1 mb 0.00 in0.0 mm 0.00 in0.0 mm 0.00 in0.0 mm
03:03 AM 46.6°F8.1°C 42.3°F5.7°C 85% Calm Calm -- 29.71 in1006.1 mb 0.00 in0.0 mm 0.00 in0.0 mm 0.00 in0.0 mm
03:07 AM 46.6°F8.1°C 42.0°F5.6°C 84% Calm Calm -- 29.71 in1006.1 mb 0.00 in0.0 mm 0.00 in0.0 mm 0.00 in0.0 mm
03:11 AM 46.6°F8.1°C 42.0°F5.6°C 84% Calm Calm -- 29.71 in1006.1 mb 0.00 in0.0 mm 0.00 in0.0 mm 0.00 in0.0 mm
03:13 AM 46.6°F8.1°C 41.7°F5.4°C 83% Calm Calm -- 29.71 in1006.1 mb 0.00 in0.0 mm 0.00 in0.0 mm 0.00 in0.0 mm
03:17 AM 46.6°F8.1°C 41.4°F5.2°C 82% Calm Calm -- 29.72 in1006.4 mb 0.00 in0.0 mm 0.00 in0.0 mm 0.00 in0.0 mm
03:21 AM 46.6°F8.1°C 41.4°F5.2°C 82% Calm Calm -- 29.72 in1006.4 mb 0.00 in0.0 mm 0.00 in0.0 mm 0.00 in0.0 mm
03:26 AM 46.4°F8.0°C 40.9°F4.9°C 81% Calm Calm -- 29.72 in1006.4 mb 0.00 in0.0 mm 0.00 in0.0 mm 0.00 in0.0 mm
03:29 AM 46.2°F7.9°C 40.7°F4.8°C 81% Calm Calm -- 29.72 in1006.4 mb 0.00 in0.0 mm 0.00 in0.0 mm 0.00 in0.0 mm
03:33 AM 46.2°F7.9°C 40.7°F4.8°C 81% Calm Calm -- 29.72 in1006.4 mb 0.00 in0.0 mm 0.00 in0.0 mm 0.00 in0.0 mm
03:37 AM 46.2°F7.9°C 40.7°F4.8°C 81% Calm Calm -- 29.72 in1006.4 mb 0.00 in0.0 mm 0.00 in0.0 mm 0.00 in0.0 mm
03:39 AM 46.0°F7.8°C 40.5°F4.7°C 81% Calm Calm -- 29.72 in1006.4 mb 0.00 in0.0 mm 0.00 in0.0 mm 0.00 in0.0 mm
03:43 AM 46.0°F7.8°C 40.5°F4.7°C 81% 1.6 mph SSW2.6 kmh SSW 3.8 mph6.1 kmh 29.72 in1006.4 mb 0.00 in0.0 mm 0.00 in0.0 mm 0.00 in0.0 mm
03:45 AM 46.2°F7.9°C 40.7°F4.8°C 81% 4.5 mph S7.2 kmh S 5.4 mph8.7 kmh 29.73 in1006.8 mb 0.00 in0.0 mm 0.00 in0.0 mm 0.00 in0.0 mm
03:49 AM 46.4°F8.0°C 41.2°F5.1°C 82% 5.4 mph SW8.7 kmh SW 6.9 mph11.1 kmh 29.72 in1006.4 mb 0.00 in0.0 mm 0.00 in0.0 mm 0.00 in0.0 mm
03:53 AM 46.6°F8.1°C 41.4°F5.2°C 82% Calm Calm -- 29.72 in1006.4 mb 0.00 in0.0 mm 0.00 in0.0 mm 0.00 in0.0 mm
03:57 AM 46.9°F8.3°C 41.7°F5.4°C 82% 1.6 mph SW2.6 kmh SW 4.5 mph7.2 kmh 29.73 in1006.8 mb 0.00 in0.0 mm 0.00 in0.0 mm 0.00 in0.0 mm
04:02 AM 47.3°F8.5°C 41.8°F5.4°C 81% 3.8 mph SW6.1 kmh SW 9.2 mph14.8 kmh 29.73 in1006.8 mb 0.00 in0.0 mm 0.00 in0.0 mm 0.00 in0.0 mm
04:06 AM 47.7°F8.7°C 42.1°F5.6°C 81% 4.5 mph SW7.2 kmh SW 8.3 mph13.4 kmh 29.73 in1006.8 mb 0.00 in0.0 mm 0.00 in0.0 mm 0.00 in0.0 mm
04:10 AM 47.8°F8.8°C 42.0°F5.6°C 80% Calm Calm 0.7 mph1.1 kmh 29.73 in1006.8 mb 0.00 in0.0 mm 0.00 in0.0 mm 0.00 in0.0 mm
04:14 AM 48.0°F8.9°C 42.2°F5.7°C 80% 5.4 mph W8.7 kmh W 6.9 mph11.1 kmh 29.74 in1007.1 mb 0.00 in0.0 mm 0.00 in0.0 mm 0.00 in0.0 mm
04:18 AM 48.2°F9.0°C 42.0°F5.6°C 79% Calm Calm -- 29.73 in1006.8 mb 0.00 in0.0 mm 0.00 in0.0 mm 0.00 in0.0 mm
04:22 AM 48.2°F9.0°C 41.7°F5.4°C 78% 3.8 mph SSW6.1 kmh SSW 5.4 mph8.7 kmh 29.74 in1007.1 mb 0.00 in0.0 mm 0.00 in0.0 mm 0.00 in0.0 mm
04:26 AM 48.4°F9.1°C 41.5°F5.3°C 77% 5.4 mph SW8.7 kmh SW 7.6 mph12.2 kmh 29.74 in1007.1 mb 0.00 in0.0 mm 0.00 in0.0 mm 0.00 in0.0 mm
04:30 AM 48.6°F9.2°C 41.3°F5.2°C 76% 4.5 mph SW7.2 kmh SW 6.0 mph9.7 kmh 29.74 in1007.1 mb 0.00 in0.0 mm 0.00 in0.0 mm 0.00 in0.0 mm
04:34 AM 48.6°F9.2°C 41.3°F5.2°C 76% 4.5 mph SW7.2 kmh SW 6.9 mph11.1 kmh 29.74 in1007.1 mb 0.00 in0.0 mm 0.00 in0.0 mm 0.00 in0.0 mm
04:36 AM 48.7°F9.3°C 41.2°F5.1°C 75% 3.1 mph W5.0 kmh W 6.0 mph9.7 kmh 29.75 in1007.5 mb 0.00 in0.0 mm 0.00 in0.0 mm 0.00 in0.0 mm
04:40 AM 48.7°F9.3°C 41.5°F5.3°C 76% 13.0 mph NW20.9 kmh NW 15.2 mph24.5 kmh 29.76 in1007.8 mb 0.00 in0.0 mm 0.00 in0.0 mm 0.00 in0.0 mm
04:44 AM 47.8°F8.8°C 39.6°F4.2°C 73% 3.8 mph W6.1 kmh W 4.5 mph7.2 kmh 29.75 in1007.5 mb 0.00 in0.0 mm 0.00 in0.0 mm 0.00 in0.0 mm
04:48 AM 47.5°F8.6°C 39.3°F4.1°C 73% 6.0 mph W9.7 kmh W 9.2 mph14.8 kmh 29.76 in1007.8 mb 0.00 in0.0 mm 0.00 in0.0 mm 0.00 in0.0 mm
04:52 AM 47.1°F8.4°C 39.3°F4.1°C 74% 6.9 mph W11.1 kmh W 8.3 mph13.4 kmh 29.76 in1007.8 mb 0.00 in0.0 mm 0.00 in0.0 mm 0.00 in0.0 mm
04:56 AM 46.9°F8.3°C 39.8°F4.3°C 76% Calm Calm -- 29.75 in1007.5 mb 0.00 in0.0 mm 0.00 in0.0 mm 0.01 in0.3 mm
05:00 AM 46.6°F8.1°C 39.8°F4.3°C 77% Calm Calm -- 29.75 in1007.5 mb 0.01 in0.3 mm 0.01 in0.3 mm 0.01 in0.3 mm
05:04 AM 46.4°F8.0°C 39.9°F4.4°C 78% 3.1 mph SW5.0 kmh SW 5.4 mph8.7 kmh 29.75 in1007.5 mb 0.01 in0.3 mm 0.00 in0.0 mm 0.01 in0.3 mm
05:08 AM 46.6°F8.1°C 40.8°F4.9°C 80% Calm Calm -- 29.75 in1007.5 mb 0.01 in0.3 mm 0.00 in0.0 mm 0.01 in0.3 mm
05:12 AM 46.4°F8.0°C 40.9°F4.9°C 81% Calm Calm -- 29.75 in1007.5 mb 0.01 in0.3 mm 0.00 in0.0 mm 0.01 in0.3 mm
05:16 AM 46.4°F8.0°C 40.9°F4.9°C 81% Calm Calm -- 29.75 in1007.5 mb 0.01 in0.3 mm 0.00 in0.0 mm 0.01 in0.3 mm
05:20 AM 46.4°F8.0°C 41.2°F5.1°C 82% Calm Calm -- 29.75 in1007.5 mb 0.01 in0.3 mm 0.00 in0.0 mm 0.01 in0.3 mm
05:24 AM 46.2°F7.9°C 41.4°F5.2°C 83% Calm Calm -- 29.76 in1007.8 mb 0.01 in0.3 mm 0.00 in0.0 mm 0.01 in0.3 mm
05:29 AM 46.4°F8.0°C 41.8°F5.4°C 84% Calm Calm -- 29.76 in1007.8 mb 0.01 in0.3 mm 0.00 in0.0 mm 0.01 in0.3 mm
05:33 AM 46.2°F7.9°C 41.7°F5.4°C 84% Calm Calm -- 29.76 in1007.8 mb 0.01 in0.3 mm 0.00 in0.0 mm 0.01 in0.3 mm
05:39 AM 46.0°F7.8°C 41.2°F5.1°C 83% Calm Calm -- 29.76 in1007.8 mb 0.00 in0.0 mm 0.00 in0.0 mm 0.01 in0.3 mm
05:42 AM 46.0°F7.8°C 40.9°F4.9°C 82% Calm Calm -- 29.77 in1008.1 mb 0.01 in0.3 mm 0.24 in6.1 mm 0.01 in0.3 mm
05:47 AM 45.9°F7.7°C 40.7°F4.8°C 82% Calm Calm -- 29.76 in1007.8 mb 0.01 in0.3 mm 0.00 in0.0 mm 0.01 in0.3 mm
05:51 AM 45.7°F7.6°C 40.5°F4.7°C 82% Calm Calm -- 29.76 in1007.8 mb 0.01 in0.3 mm 0.00 in0.0 mm 0.01 in0.3 mm
05:55 AM 45.7°F7.6°C 40.5°F4.7°C 82% Calm Calm -- 29.77 in1008.1 mb 0.00 in0.0 mm 0.00 in0.0 mm 0.01 in0.3 mm
05:58 AM 45.5°F7.5°C 40.3°F4.6°C 82% Calm Calm -- 29.77 in1008.1 mb 0.00 in0.0 mm 0.00 in0.0 mm 0.01 in0.3 mm
06:02 AM 45.5°F7.5°C 40.3°F4.6°C 82% Calm Calm -- 29.78 in1008.5 mb 0.00 in0.0 mm 0.00 in0.0 mm 0.02 in0.5 mm
06:06 AM 45.5°F7.5°C 40.6°F4.8°C 83% Calm Calm -- 29.78 in1008.5 mb 0.01 in0.3 mm 0.18 in4.6 mm 0.02 in0.5 mm
06:08 AM 45.7°F7.6°C 40.8°F4.9°C 83% Calm Calm -- 29.79 in1008.8 mb 0.01 in0.3 mm 0.00 in0.0 mm 0.02 in0.5 mm
06:12 AM 45.7°F7.6°C 41.1°F5.1°C 84% Calm Calm -- 29.78 in1008.5 mb 0.01 in0.3 mm 0.00 in0.0 mm 0.02 in0.5 mm
06:14 AM 45.9°F7.7°C 41.3°F5.2°C 84% 3.1 mph W5.0 kmh W 6.0 mph9.7 kmh 29.78 in1008.5 mb 0.01 in0.3 mm 0.00 in0.0 mm 0.02 in0.5 mm
06:18 AM 46.0°F7.8°C 41.2°F5.1°C 83% Calm Calm -- 29.78 in1008.5 mb 0.01 in0.3 mm 0.00 in0.0 mm 0.02 in0.5 mm
06:20 AM 46.0°F7.8°C 41.2°F5.1°C 83% Calm Calm -- 29.79 in1008.8 mb 0.01 in0.3 mm 0.00 in0.0 mm 0.02 in0.5 mm
06:24 AM 46.0°F7.8°C 40.9°F4.9°C 82% Calm Calm -- 29.79 in1008.8 mb 0.01 in0.3 mm 0.00 in0.0 mm 0.02 in0.5 mm
06:26 AM 46.0°F7.8°C 40.5°F4.7°C 81% Calm Calm -- 29.79 in1008.8 mb 0.01 in0.3 mm 0.00 in0.0 mm 0.02 in0.5 mm
06:30 AM 46.2°F7.9°C 40.7°F4.8°C 81% Calm Calm -- 29.79 in1008.8 mb 0.01 in0.3 mm 0.00 in0.0 mm 0.02 in0.5 mm
06:32 AM 46.0°F7.8°C 40.5°F4.7°C 81% Calm Calm -- 29.80 in1009.1 mb 0.01 in0.3 mm 0.00 in0.0 mm 0.02 in0.5 mm
06:37 AM 46.0°F7.8°C 40.5°F4.7°C 81% Calm Calm -- 29.79 in1008.8 mb 0.01 in0.3 mm 0.00 in0.0 mm 0.02 in0.5 mm
06:38 AM 46.0°F7.8°C 40.5°F4.7°C 81% Calm Calm -- 29.79 in1008.8 mb 0.01 in0.3 mm 0.00 in0.0 mm 0.02 in0.5 mm
06:42 AM 45.9°F7.7°C 40.4°F4.7°C 81% Calm Calm -- 29.80 in1009.1 mb 0.01 in0.3 mm 0.00 in0.0 mm 0.02 in0.5 mm
06:44 AM 45.9°F7.7°C 40.1°F4.5°C 80% Calm Calm -- 29.80 in1009.1 mb 0.01 in0.3 mm 0.00 in0.0 mm 0.02 in0.5 mm
06:49 AM 45.9°F7.7°C 40.1°F4.5°C 80% Calm Calm -- 29.80 in1009.1 mb 0.01 in0.3 mm 0.00 in0.0 mm 0.02 in0.5 mm
06:51 AM 45.9°F7.7°C 40.1°F4.5°C 80% Calm Calm -- 29.80 in1009.1 mb 0.01 in0.3 mm 0.00 in0.0 mm 0.02 in0.5 mm
06:55 AM 45.9°F7.7°C 40.1°F4.5°C 80% Calm Calm -- 29.81 in1009.5 mb 0.01 in0.3 mm 0.00 in0.0 mm 0.02 in0.5 mm
06:57 AM 46.0°F7.8°C 40.2°F4.6°C 80% Calm Calm -- 29.81 in1009.5 mb 0.00 in0.0 mm 0.00 in0.0 mm 0.02 in0.5 mm
07:01 AM 46.2°F7.9°C 40.4°F4.7°C 80% Calm Calm -- 29.81 in1009.5 mb 0.00 in0.0 mm 0.00 in0.0 mm 0.02 in0.5 mm
07:03 AM 46.2°F7.9°C 40.4°F4.7°C 80% Calm Calm -- 29.81 in1009.5 mb 0.00 in0.0 mm 0.00 in0.0 mm 0.02 in0.5 mm
07:07 AM 46.2°F7.9°C 40.4°F4.7°C 80% Calm Calm -- 29.82 in1009.8 mb 0.00 in0.0 mm 0.00 in0.0 mm 0.02 in0.5 mm
07:09 AM 46.4°F8.0°C 40.9°F4.9°C 81% Calm Calm -- 29.82 in1009.8 mb 0.00 in0.0 mm 0.00 in0.0 mm 0.02 in0.5 mm
07:13 AM 46.6°F8.1°C 40.8°F4.9°C 80% Calm Calm -- 29.82 in1009.8 mb 0.00 in0.0 mm 0.00 in0.0 mm 0.02 in0.5 mm
07:15 AM 46.6°F8.1°C 40.8°F4.9°C 80% Calm Calm -- 29.83 in1010.2 mb 0.00 in0.0 mm 0.00 in0.0 mm 0.02 in0.5 mm
07:19 AM 46.8°F8.2°C 40.9°F4.9°C 80% Calm Calm -- 29.82 in1009.8 mb 0.00 in0.0 mm 0.00 in0.0 mm 0.02 in0.5 mm
07:21 AM 46.9°F8.3°C 41.1°F5.1°C 80% Calm Calm -- 29.83 in1010.2 mb 0.00 in0.0 mm 0.00 in0.0 mm 0.02 in0.5 mm
07:23 AM 47.1°F8.4°C 41.3°F5.2°C 80% Calm Calm -- 29.82 in1009.8 mb 0.00 in0.0 mm 0.00 in0.0 mm 0.02 in0.5 mm
07:27 AM 47.1°F8.4°C 41.3°F5.2°C 80% Calm Calm -- 29.82 in1009.8 mb 0.00 in0.0 mm 0.00 in0.0 mm 0.02 in0.5 mm
07:29 AM 47.1°F8.4°C 41.0°F5.0°C 79% Calm Calm -- 29.83 in1010.2 mb 0.00 in0.0 mm 0.00 in0.0 mm 0.02 in0.5 mm
07:33 AM 47.3°F8.5°C 41.1°F5.1°C 79% Calm Calm -- 29.83 in1010.2 mb 0.00 in0.0 mm 0.00 in0.0 mm 0.02 in0.5 mm
07:35 AM 47.3°F8.5°C 41.1°F5.1°C 79% Calm Calm -- 29.83 in1010.2 mb 0.00 in0.0 mm 0.00 in0.0 mm 0.02 in0.5 mm
07:40 AM 47.5°F8.6°C 41.3°F5.2°C 79% Calm Calm -- 29.83 in1010.2 mb 0.00 in0.0 mm 0.00 in0.0 mm 0.02 in0.5 mm
07:42 AM 47.3°F8.5°C 41.1°F5.1°C 79% Calm Calm -- 29.84 in1010.5 mb 0.00 in0.0 mm 0.00 in0.0 mm 0.02 in0.5 mm
07:46 AM 47.3°F8.5°C 41.1°F5.1°C 79% Calm Calm -- 29.84 in1010.5 mb 0.00 in0.0 mm 0.00 in0.0 mm 0.02 in0.5 mm
07:47 AM 47.3°F8.5°C 41.1°F5.1°C 79% Calm Calm -- 29.84 in1010.5 mb 0.00 in0.0 mm 0.00 in0.0 mm 0.02 in0.5 mm
07:51 AM 47.3°F8.5°C 41.1°F5.1°C 79% Calm Calm -- 29.85 in1010.8 mb 0.00 in0.0 mm 0.00 in0.0 mm 0.02 in0.5 mm
07:53 AM 47.3°F8.5°C 41.1°F5.1°C 79% Calm Calm -- 29.84 in1010.5 mb 0.00 in0.0 mm 0.00 in0.0 mm 0.02 in0.5 mm
07:57 AM 47.5°F8.6°C 41.3°F5.2°C 79% Calm Calm -- 29.85 in1010.8 mb 0.00 in0.0 mm 0.00 in0.0 mm 0.02 in0.5 mm
07:59 AM 47.5°F8.6°C 41.3°F5.2°C 79% Calm Calm -- 29.85 in1010.8 mb 0.00 in0.0 mm 0.00 in0.0 mm 0.02 in0.5 mm
08:04 AM 47.7°F8.7°C 41.8°F5.4°C 80% Calm Calm -- 29.85 in1010.8 mb 0.00 in0.0 mm 0.00 in0.0 mm 0.02 in0.5 mm
08:05 AM 47.7°F8.7°C 41.8°F5.4°C 80% Calm Calm -- 29.86 in1011.2 mb 0.00 in0.0 mm 0.00 in0.0 mm 0.02 in0.5 mm
08:10 AM 48.0°F8.9°C 42.2°F5.7°C 80% Calm Calm -- 29.86 in1011.2 mb 0.00 in0.0 mm 0.00 in0.0 mm 0.02 in0.5 mm
08:12 AM 48.2°F9.0°C 42.7°F5.9°C 81% Calm Calm -- 29.86 in1011.2 mb 0.00 in0.0 mm 0.00 in0.0 mm 0.02 in0.5 mm
08:15 AM 48.2°F9.0°C 42.3°F5.7°C 80% Calm Calm -- 29.86 in1011.2 mb 0.00 in0.0 mm 0.00 in0.0 mm 0.02 in0.5 mm
08:17 AM 48.2°F9.0°C 42.3°F5.7°C 80% Calm Calm -- 29.86 in1011.2 mb 0.00 in0.0 mm 0.00 in0.0 mm 0.02 in0.5 mm
08:21 AM 48.2°F9.0°C 42.3°F5.7°C 80% Calm Calm -- 29.85 in1010.8 mb 0.00 in0.0 mm 0.00 in0.0 mm 0.02 in0.5 mm
08:23 AM 48.4°F9.1°C 42.5°F5.8°C 80% Calm Calm -- 29.86 in1011.2 mb 0.00 in0.0 mm 0.00 in0.0 mm 0.02 in0.5 mm
08:27 AM 48.4°F9.1°C 42.5°F5.8°C 80% Calm Calm -- 29.86 in1011.2 mb 0.00 in0.0 mm 0.00 in0.0 mm 0.02 in0.5 mm
08:30 AM 48.7°F9.3°C 42.9°F6.1°C 80% 3.8 mph W6.1 kmh W 6.9 mph11.1 kmh 29.86 in1011.2 mb 0.00 in0.0 mm 0.00 in0.0 mm 0.02 in0.5 mm
08:33 AM 48.9°F9.4°C 43.0°F6.1°C 80% 1.6 mph W2.6 kmh W 3.1 mph5.0 kmh 29.86 in1011.2 mb 0.00 in0.0 mm 0.00 in0.0 mm 0.02 in0.5 mm
08:35 AM 49.1°F9.5°C 42.9°F6.1°C 79% Calm Calm -- 29.87 in1011.5 mb 0.00 in0.0 mm 0.00 in0.0 mm 0.02 in0.5 mm
08:39 AM 49.5°F9.7°C 43.2°F6.2°C 79% Calm Calm -- 29.87 in1011.5 mb 0.00 in0.0 mm 0.00 in0.0 mm 0.02 in0.5 mm
08:41 AM 49.6°F9.8°C 43.1°F6.2°C 78% Calm Calm -- 29.87 in1011.5 mb 0.00 in0.0 mm 0.00 in0.0 mm 0.02 in0.5 mm
08:45 AM 49.8°F9.9°C 43.2°F6.2°C 78% Calm Calm -- 29.87 in1011.5 mb 0.00 in0.0 mm 0.00 in0.0 mm 0.02 in0.5 mm
08:47 AM 50.0°F10.0°C 43.1°F6.2°C 77% Calm Calm -- 29.87 in1011.5 mb 0.00 in0.0 mm 0.00 in0.0 mm 0.02 in0.5 mm
08:52 AM 50.2°F10.1°C 42.9°F6.1°C 76% Calm Calm -- 29.88 in1011.9 mb 0.00 in0.0 mm 0.00 in0.0 mm 0.02 in0.5 mm
08:53 AM 50.5°F10.3°C 43.3°F6.3°C 76% Calm Calm -- 29.88 in1011.9 mb 0.00 in0.0 mm 0.00 in0.0 mm 0.02 in0.5 mm
08:58 AM 50.9°F10.5°C 43.6°F6.4°C 76% Calm Calm -- 29.89 in1012.2 mb 0.00 in0.0 mm 0.00 in0.0 mm 0.02 in0.5 mm
09:00 AM 51.3°F10.7°C 44.0°F6.7°C 76% Calm Calm -- 29.89 in1012.2 mb 0.00 in0.0 mm 0.00 in0.0 mm 0.02 in0.5 mm
09:03 AM 51.8°F11.0°C 44.5°F6.9°C 76% Calm Calm -- 29.88 in1011.9 mb 0.00 in0.0 mm 0.00 in0.0 mm 0.02 in0.5 mm
09:09 AM 52.2°F11.2°C 44.1°F6.7°C 74% Calm Calm -- 29.88 in1011.9 mb 0.00 in0.0 mm 0.00 in0.0 mm 0.02 in0.5 mm
09:12 AM 52.7°F11.5°C 45.0°F7.2°C 75% Calm Calm -- 29.88 in1011.9 mb 0.00 in0.0 mm 0.00 in0.0 mm 0.02 in0.5 mm
09:16 AM 53.4°F11.9°C 45.3°F7.4°C 74% Calm Calm -- 29.88 in1011.9 mb 0.00 in0.0 mm 0.00 in0.0 mm 0.02 in0.5 mm
09:20 AM 53.2°F11.8°C 44.5°F6.9°C 72% 2.2 mph W3.5 kmh W 3.8 mph6.1 kmh 29.89 in1012.2 mb 0.00 in0.0 mm 0.00 in0.0 mm 0.02 in0.5 mm
09:23 AM 53.1°F11.7°C 44.3°F6.8°C 72% Calm Calm -- 29.89 in1012.2 mb 0.00 in0.0 mm 0.00 in0.0 mm 0.02 in0.5 mm
09:27 AM 53.6°F12.0°C 44.8°F7.1°C 72% Calm Calm -- 29.89 in1012.2 mb 0.00 in0.0 mm 0.00 in0.0 mm 0.02 in0.5 mm
09:35 AM 53.6°F12.0°C 44.4°F6.9°C 71% 8.3 mph WNW13.4 kmh WNW 9.8 mph15.8 kmh 29.89 in1012.2 mb 0.00 in0.0 mm 0.00 in0.0 mm 0.02 in0.5 mm
09:40 AM 53.2°F11.8°C 44.1°F6.7°C 71% 6.0 mph NW9.7 kmh NW 9.8 mph15.8 kmh 29.90 in1012.5 mb 0.00 in0.0 mm 0.00 in0.0 mm 0.02 in0.5 mm
09:42 AM 53.1°F11.7°C 43.9°F6.6°C 71% 6.0 mph W9.7 kmh W 7.6 mph12.2 kmh 29.90 in1012.5 mb 0.00 in0.0 mm 0.00 in0.0 mm 0.02 in0.5 mm
09:45 AM 53.2°F11.8°C 44.1°F6.7°C 71% 3.8 mph S6.1 kmh S 5.4 mph8.7 kmh 29.90 in1012.5 mb 0.00 in0.0 mm 0.00 in0.0 mm 0.02 in0.5 mm
09:47 AM 54.0°F12.2°C 44.8°F7.1°C 71% 7.6 mph NW12.2 kmh NW 10.7 mph17.2 kmh 29.90 in1012.5 mb 0.00 in0.0 mm 0.00 in0.0 mm 0.02 in0.5 mm
09:51 AM 54.1°F12.3°C 44.6°F7.0°C 70% 4.5 mph W7.2 kmh W 6.9 mph11.1 kmh 29.90 in1012.5 mb 0.00 in0.0 mm 0.00 in0.0 mm 0.02 in0.5 mm
09:53 AM 54.0°F12.2°C 44.4°F6.9°C 70% 10.7 mph W17.2 kmh W 13.7 mph22.0 kmh 29.90 in1012.5 mb 0.00 in0.0 mm 0.00 in0.0 mm 0.02 in0.5 mm
10:02 AM 54.9°F12.7°C 44.9°F7.2°C 69% 6.9 mph W11.1 kmh W 9.2 mph14.8 kmh 29.91 in1012.9 mb 0.00 in0.0 mm 0.00 in0.0 mm 0.02 in0.5 mm
10:04 AM 55.8°F13.2°C 45.0°F7.2°C 67% 5.4 mph W8.7 kmh W 7.6 mph12.2 kmh 29.91 in1012.9 mb 0.00 in0.0 mm 0.00 in0.0 mm 0.02 in0.5 mm
10:08 AM 56.7°F13.7°C 45.8°F7.7°C 67% 0.7 mph NW1.1 kmh NW 3.8 mph6.1 kmh 29.91 in1012.9 mb 0.00 in0.0 mm 0.00 in0.0 mm 0.02 in0.5 mm
10:10 AM 56.7°F13.7°C 45.0°F7.2°C 65% 11.4 mph NE18.3 kmh NE 16.8 mph27.0 kmh 29.91 in1012.9 mb 0.00 in0.0 mm 0.00 in0.0 mm 0.02 in0.5 mm
10:14 AM 56.8°F13.8°C 44.8°F7.1°C 64% 4.5 mph WSW7.2 kmh WSW 6.0 mph9.7 kmh 29.91 in1012.9 mb 0.00 in0.0 mm 0.00 in0.0 mm 0.02 in0.5 mm
10:16 AM 57.0°F13.9°C 44.6°F7.0°C 63% 9.2 mph WNW14.8 kmh WNW 13.0 mph20.9 kmh 29.91 in1012.9 mb 0.00 in0.0 mm 0.00 in0.0 mm 0.02 in0.5 mm
10:20 AM 56.7°F13.7°C 44.2°F6.8°C 63% 9.8 mph W15.8 kmh W 15.2 mph24.5 kmh 29.91 in1012.9 mb 0.00 in0.0 mm 0.00 in0.0 mm 0.02 in0.5 mm
10:24 AM 57.4°F14.1°C 45.7°F7.6°C 65% 6.0 mph W9.7 kmh W 8.3 mph13.4 kmh 29.92 in1013.2 mb 0.00 in0.0 mm 0.00 in0.0 mm 0.02 in0.5 mm
10:28 AM 57.6°F14.2°C 44.6°F7.0°C 62% 7.6 mph W12.2 kmh W 9.8 mph15.8 kmh 29.92 in1013.2 mb 0.00 in0.0 mm 0.00 in0.0 mm 0.02 in0.5 mm
10:32 AM 58.5°F14.7°C 45.9°F7.7°C 63% 7.6 mph W12.2 kmh W 9.8 mph15.8 kmh 29.92 in1013.2 mb 0.00 in0.0 mm 0.00 in0.0 mm 0.02 in0.5 mm
10:36 AM 58.6°F14.8°C 45.2°F7.3°C 61% 13.0 mph W20.9 kmh W 19.0 mph30.6 kmh 29.92 in1013.2 mb 0.00 in0.0 mm 0.00 in0.0 mm 0.02 in0.5 mm
10:38 AM 58.1°F14.5°C 44.7°F7.1°C 61% 6.9 mph NW11.1 kmh NW 8.3 mph13.4 kmh 29.92 in1013.2 mb 0.00 in0.0 mm 0.00 in0.0 mm 0.02 in0.5 mm
10:42 AM 57.6°F14.2°C 43.8°F6.6°C 60% 6.0 mph NW9.7 kmh NW 9.2 mph14.8 kmh 29.92 in1013.2 mb 0.00 in0.0 mm 0.00 in0.0 mm 0.02 in0.5 mm
10:45 AM 57.4°F14.1°C 43.6°F6.4°C 60% 10.7 mph NW17.2 kmh NW 13.7 mph22.0 kmh 29.92 in1013.2 mb 0.00 in0.0 mm 0.00 in0.0 mm 0.02 in0.5 mm
10:46 AM 57.6°F14.2°C 44.2°F6.8°C 61% 6.0 mph NW9.7 kmh NW 8.3 mph13.4 kmh 29.92 in1013.2 mb 0.00 in0.0 mm 0.00 in0.0 mm 0.02 in0.5 mm
10:51 AM 57.7°F14.3°C 44.4°F6.9°C 61% 12.1 mph SW19.5 kmh SW 14.5 mph23.3 kmh 29.93 in1013.5 mb 0.00 in0.0 mm 0.00 in0.0 mm 0.02 in0.5 mm
10:52 AM 57.6°F14.2°C 44.2°F6.8°C 61% 3.8 mph W6.1 kmh W 5.4 mph8.7 kmh 29.92 in1013.2 mb 0.00 in0.0 mm 0.00 in0.0 mm 0.02 in0.5 mm
10:56 AM 59.0°F15.0°C 46.0°F7.8°C 62% 7.6 mph W12.2 kmh W 11.4 mph18.3 kmh 29.92 in1013.2 mb 0.00 in0.0 mm 0.00 in0.0 mm 0.02 in0.5 mm
11:00 AM 59.7°F15.4°C 45.8°F7.7°C 60% 6.9 mph SW11.1 kmh SW 8.3 mph13.4 kmh 29.92 in1013.2 mb 0.00 in0.0 mm 0.00 in0.0 mm 0.02 in0.5 mm
11:04 AM 59.5°F15.3°C 45.6°F7.6°C 60% 6.9 mph WNW11.1 kmh WNW 9.2 mph14.8 kmh 29.92 in1013.2 mb 0.00 in0.0 mm 0.00 in0.0 mm 0.02 in0.5 mm
11:07 AM 59.4°F15.2°C 44.6°F7.0°C 58% 9.2 mph SW14.8 kmh SW 11.4 mph18.3 kmh 29.92 in1013.2 mb 0.00 in0.0 mm 0.00 in0.0 mm 0.02 in0.5 mm
11:10 AM 59.4°F15.2°C 43.7°F6.5°C 56% 11.4 mph W18.3 kmh W 14.5 mph23.3 kmh 29.92 in1013.2 mb 0.00 in0.0 mm 0.00 in0.0 mm 0.02 in0.5 mm
11:12 AM 59.4°F15.2°C 45.0°F7.2°C 59% 10.7 mph W17.2 kmh W 17.5 mph28.2 kmh 29.93 in1013.5 mb 0.00 in0.0 mm 0.00 in0.0 mm 0.02 in0.5 mm
11:16 AM 57.0°F13.9°C 44.6°F7.0°C 63% 7.6 mph NW12.2 kmh NW 10.7 mph17.2 kmh 29.93 in1013.5 mb 0.00 in0.0 mm 0.00 in0.0 mm 0.05 in1.3 mm
11:20 AM 55.4°F13.0°C 43.4°F6.3°C 64% 2.2 mph W3.5 kmh W 4.5 mph7.2 kmh 29.93 in1013.5 mb 0.02 in0.5 mm 0.35 in8.9 mm 0.05 in1.3 mm
11:22 AM 54.7°F12.6°C 43.9°F6.6°C 67% Calm Calm -- 29.93 in1013.5 mb 0.02 in0.5 mm 0.00 in0.0 mm 0.05 in1.3 mm
11:26 AM 55.0°F12.8°C 45.4°F7.4°C 70% Calm Calm -- 29.93 in1013.5 mb 0.02 in0.5 mm 0.00 in0.0 mm 0.05 in1.3 mm
11:30 AM 56.1°F13.4°C 46.9°F8.3°C 71% Calm Calm -- 29.93 in1013.5 mb 0.02 in0.5 mm 0.00 in0.0 mm 0.05 in1.3 mm
11:32 AM 57.6°F14.2°C 48.6°F9.2°C 72% Calm Calm 3.8 mph6.1 kmh 29.93 in1013.5 mb 0.02 in0.5 mm 0.00 in0.0 mm 0.05 in1.3 mm
11:39 AM 56.3°F13.5°C 43.9°F6.6°C 63% Calm Calm 0.7 mph1.1 kmh 29.93 in1013.5 mb 0.00 in0.0 mm 0.00 in0.0 mm 0.05 in1.3 mm
11:46 AM 55.2°F12.9°C 44.1°F6.7°C 66% 6.0 mph NW9.7 kmh NW 7.6 mph12.2 kmh 29.93 in1013.5 mb 0.02 in0.5 mm 0.20 in5.1 mm 0.05 in1.3 mm
11:50 AM 56.5°F13.6°C 45.3°F7.4°C 66% 8.3 mph NW13.4 kmh NW 10.7 mph17.2 kmh 29.93 in1013.5 mb 0.02 in0.5 mm 0.00 in0.0 mm 0.05 in1.3 mm
11:55 AM 57.6°F14.2°C 45.1°F7.3°C 63% 7.6 mph NW12.2 kmh NW 9.8 mph15.8 kmh 29.93 in1013.5 mb 0.02 in0.5 mm 0.00 in0.0 mm 0.05 in1.3 mm
11:58 AM 58.6°F14.8°C 46.1°F7.8°C 63% 8.3 mph NNW13.4 kmh NNW 9.2 mph14.8 kmh 29.93 in1013.5 mb 0.02 in0.5 mm 0.00 in0.0 mm 0.05 in1.3 mm
12:02 PM 59.4°F15.2°C 46.8°F8.2°C 63% 4.5 mph NNW7.2 kmh NNW 6.0 mph9.7 kmh 29.93 in1013.5 mb 0.02 in0.5 mm 0.00 in0.0 mm 0.05 in1.3 mm
12:06 PM 59.9°F15.5°C 46.9°F8.3°C 62% 3.1 mph NNW5.0 kmh NNW 5.4 mph8.7 kmh 29.94 in1013.9 mb 0.02 in0.5 mm 0.00 in0.0 mm 0.05 in1.3 mm
12:08 PM 61.0°F16.1°C 47.0°F8.3°C 60% 9.8 mph NW15.8 kmh NW 10.7 mph17.2 kmh 29.93 in1013.5 mb 0.02 in0.5 mm 0.00 in0.0 mm 0.05 in1.3 mm
12:12 PM 59.5°F15.3°C 42.4°F5.8°C 53% 3.1 mph 5.0 kmh 5.4 mph8.7 kmh 29.94 in1013.9 mb 0.02 in0.5 mm 0.00 in0.0 mm 0.05 in1.3 mm
12:14 PM 58.6°F14.8°C 42.5°F5.8°C 55% 7.6 mph W12.2 kmh W 9.2 mph14.8 kmh 29.93 in1013.5 mb 0.00 in0.0 mm 0.00 in0.0 mm 0.05 in1.3 mm
12:18 PM 57.4°F14.1°C 42.3°F5.7°C 57% 5.4 mph NW8.7 kmh NW 6.9 mph11.1 kmh 29.94 in1013.9 mb 0.00 in0.0 mm 0.00 in0.0 mm 0.05 in1.3 mm
12:22 PM 56.3°F13.5°C 42.6°F5.9°C 60% 4.5 mph SW7.2 kmh SW 6.0 mph9.7 kmh 29.94 in1013.9 mb 0.00 in0.0 mm 0.00 in0.0 mm 0.05 in1.3 mm
12:26 PM 55.9°F13.3°C 43.5°F6.4°C 63% 3.8 mph WNW6.1 kmh WNW 5.4 mph8.7 kmh 29.94 in1013.9 mb 0.00 in0.0 mm 0.00 in0.0 mm 0.05 in1.3 mm
12:30 PM 57.4°F14.1°C 46.9°F8.3°C 68% Calm Calm -- 29.94 in1013.9 mb 0.00 in0.0 mm 0.00 in0.0 mm 0.05 in1.3 mm
12:35 PM 59.7°F15.4°C 48.3°F9.1°C 66% Calm Calm -- 29.94 in1013.9 mb 0.00 in0.0 mm 0.00 in0.0 mm 0.05 in1.3 mm
12:39 PM 61.2°F16.2°C 46.7°F8.2°C 59% 7.6 mph WNW12.2 kmh WNW 9.2 mph14.8 kmh 29.94 in1013.9 mb 0.00 in0.0 mm 0.00 in0.0 mm 0.05 in1.3 mm
12:43 PM 60.4°F15.8°C 44.2°F6.8°C 55% 3.8 mph W6.1 kmh W 5.4 mph8.7 kmh 29.94 in1013.9 mb 0.00 in0.0 mm 0.00 in0.0 mm 0.06 in1.5 mm
12:47 PM 59.9°F15.5°C 43.2°F6.2°C 54% 3.8 mph W6.1 kmh W 5.4 mph8.7 kmh 29.95 in1014.2 mb 0.01 in0.3 mm 0.18 in4.6 mm 0.06 in1.5 mm
12:55 PM 59.4°F15.2°C 43.7°F6.5°C 56% 6.9 mph SW11.1 kmh SW 9.2 mph14.8 kmh 29.95 in1014.2 mb 0.01 in0.3 mm 0.00 in0.0 mm 0.06 in1.5 mm
12:59 PM 59.5°F15.3°C 42.4°F5.8°C 53% 6.9 mph NW11.1 kmh NW 9.2 mph14.8 kmh 29.94 in1013.9 mb 0.01 in0.3 mm 0.00 in0.0 mm 0.06 in1.5 mm
01:07 PM 59.5°F15.3°C 42.4°F5.8°C 53% 3.8 mph 6.1 kmh 5.4 mph8.7 kmh 29.94 in1013.9 mb 0.01 in0.3 mm 0.00 in0.0 mm 0.06 in1.5 mm
01:09 PM 59.5°F15.3°C 42.4°F5.8°C 53% 3.8 mph 6.1 kmh 5.4 mph8.7 kmh 29.94 in1013.9 mb 0.01 in0.3 mm 0.00 in0.0 mm 0.06 in1.5 mm
01:11 PM 58.8°F14.9°C 41.2°F5.1°C 52% 4.5 mph SW7.2 kmh SW 6.0 mph9.7 kmh 29.95 in1014.2 mb 0.01 in0.3 mm 0.00 in0.0 mm 0.06 in1.5 mm
01:15 PM 58.6°F14.8°C 41.6°F5.3°C 53% 4.5 mph W7.2 kmh W 6.0 mph9.7 kmh 29.95 in1014.2 mb 0.01 in0.3 mm 0.00 in0.0 mm 0.06 in1.5 mm
01:19 PM 59.9°F15.5°C 44.2°F6.8°C 56% Calm Calm -- 29.94 in1013.9 mb 0.01 in0.3 mm 0.00 in0.0 mm 0.06 in1.5 mm
01:23 PM 61.9°F16.6°C 45.1°F7.3°C 54% 0.7 mph SW1.1 kmh SW 5.4 mph8.7 kmh 29.94 in1013.9 mb 0.01 in0.3 mm 0.00 in0.0 mm 0.06 in1.5 mm
01:27 PM 61.3°F16.3°C 39.8°F4.3°C 45% 6.9 mph W11.1 kmh W 9.8 mph15.8 kmh 29.94 in1013.9 mb 0.01 in0.3 mm 0.00 in0.0 mm 0.06 in1.5 mm
01:31 PM 62.2°F16.8°C 43.9°F6.6°C 51% 8.3 mph NNW13.4 kmh NNW 10.7 mph17.2 kmh 29.94 in1013.9 mb 0.01 in0.3 mm 0.00 in0.0 mm 0.06 in1.5 mm
01:35 PM 63.0°F17.2°C 41.3°F5.2°C 45% 9.2 mph W14.8 kmh W 12.1 mph19.5 kmh 29.93 in1013.5 mb 0.01 in0.3 mm 0.00 in0.0 mm 0.06 in1.5 mm
01:39 PM 62.1°F16.7°C 39.9°F4.4°C 44% 5.4 mph W8.7 kmh W 6.9 mph11.1 kmh 29.94 in1013.9 mb 0.00 in0.0 mm 0.00 in0.0 mm 0.06 in1.5 mm
01:43 PM 62.1°F16.7°C 41.6°F5.3°C 47% 3.1 mph SW5.0 kmh SW 4.5 mph7.2 kmh 29.93 in1013.5 mb 0.00 in0.0 mm 0.00 in0.0 mm 0.06 in1.5 mm
01:47 PM 63.3°F17.4°C 43.3°F6.3°C 48% 5.4 mph SW8.7 kmh SW 6.9 mph11.1 kmh 29.93 in1013.5 mb 0.00 in0.0 mm 0.00 in0.0 mm 0.06 in1.5 mm
01:55 PM 65.1°F18.4°C 38.9°F3.8°C 38% 5.4 mph NW8.7 kmh NW 7.6 mph12.2 kmh 29.93 in1013.5 mb 0.00 in0.0 mm 0.00 in0.0 mm 0.06 in1.5 mm
01:59 PM 64.4°F18.0°C 38.9°F3.8°C 39% 9.2 mph NW14.8 kmh NW 11.4 mph18.3 kmh 29.94 in1013.9 mb 0.00 in0.0 mm 0.00 in0.0 mm 0.06 in1.5 mm
02:03 PM 63.7°F17.6°C 38.9°F3.8°C 40% 7.6 mph W12.2 kmh W 9.8 mph15.8 kmh 29.94 in1013.9 mb 0.00 in0.0 mm 0.00 in0.0 mm 0.06 in1.5 mm
02:07 PM 64.2°F17.9°C 40.0°F4.4°C 41% 6.9 mph W11.1 kmh W 10.7 mph17.2 kmh 29.94 in1013.9 mb 0.00 in0.0 mm 0.00 in0.0 mm 0.06 in1.5 mm
02:09 PM 63.7°F17.6°C 38.9°F3.8°C 40% 12.1 mph W19.5 kmh W 14.5 mph23.3 kmh 29.94 in1013.9 mb 0.00 in0.0 mm 0.00 in0.0 mm 0.06 in1.5 mm
02:14 PM 64.2°F17.9°C 40.0°F4.4°C 41% 10.7 mph W17.2 kmh W 13.0 mph20.9 kmh 29.94 in1013.9 mb 0.00 in0.0 mm 0.00 in0.0 mm 0.06 in1.5 mm
02:18 PM 64.8°F18.2°C 41.1°F5.1°C 42% 8.3 mph W13.4 kmh W 10.7 mph17.2 kmh 29.95 in1014.2 mb 0.00 in0.0 mm 0.00 in0.0 mm 0.06 in1.5 mm
02:22 PM 64.9°F18.3°C 40.7°F4.8°C 41% 9.2 mph W14.8 kmh W 12.1 mph19.5 kmh 29.94 in1013.9 mb 0.00 in0.0 mm 0.00 in0.0 mm 0.06 in1.5 mm
02:24 PM 65.1°F18.4°C 40.8°F4.9°C 41% 7.6 mph S12.2 kmh S 10.7 mph17.2 kmh 29.94 in1013.9 mb 0.00 in0.0 mm 0.00 in0.0 mm 0.06 in1.5 mm
02:28 PM 66.0°F18.9°C 42.9°F6.1°C 43% 4.5 mph NW7.2 kmh NW 6.0 mph9.7 kmh 29.95 in1014.2 mb 0.00 in0.0 mm 0.00 in0.0 mm 0.06 in1.5 mm
02:32 PM 65.7°F18.7°C 40.7°F4.8°C 40% 9.8 mph NW15.8 kmh NW 13.7 mph22.0 kmh 29.94 in1013.9 mb 0.00 in0.0 mm 0.00 in0.0 mm 0.06 in1.5 mm
02:38 PM 65.3°F18.5°C 40.4°F4.7°C 40% 9.2 mph W14.8 kmh W 11.4 mph18.3 kmh 29.94 in1013.9 mb 0.00 in0.0 mm 0.00 in0.0 mm 0.06 in1.5 mm
02:42 PM 65.3°F18.5°C 39.7°F4.3°C 39% 4.5 mph SW7.2 kmh SW 6.9 mph11.1 kmh 29.94 in1013.9 mb 0.00 in0.0 mm 0.00 in0.0 mm 0.06 in1.5 mm
02:46 PM 65.3°F18.5°C 38.4°F3.6°C 37% 9.2 mph W14.8 kmh W 12.1 mph19.5 kmh 29.95 in1014.2 mb 0.00 in0.0 mm 0.00 in0.0 mm 0.06 in1.5 mm
02:50 PM 64.0°F17.8°C 39.2°F4.0°C 40% 11.4 mph NW18.3 kmh NW 13.0 mph20.9 kmh 29.95 in1014.2 mb 0.00 in0.0 mm 0.00 in0.0 mm 0.06 in1.5 mm
02:54 PM 63.7°F17.6°C 40.2°F4.6°C 42% 8.3 mph W13.4 kmh W 12.1 mph19.5 kmh 29.94 in1013.9 mb 0.00 in0.0 mm 0.00 in0.0 mm 0.06 in1.5 mm
02:58 PM 64.9°F18.3°C 40.0°F4.4°C 40% 6.9 mph W11.1 kmh W 7.6 mph12.2 kmh 29.95 in1014.2 mb 0.00 in0.0 mm 0.00 in0.0 mm 0.06 in1.5 mm
03:02 PM 66.6°F19.2°C 40.2°F4.6°C 38% 4.5 mph W7.2 kmh W 6.9 mph11.1 kmh 29.95 in1014.2 mb 0.00 in0.0 mm 0.00 in0.0 mm 0.06 in1.5 mm
03:06 PM 66.9°F19.4°C 39.1°F3.9°C 36% 6.0 mph W9.7 kmh W 6.9 mph11.1 kmh 29.95 in1014.2 mb 0.00 in0.0 mm 0.00 in0.0 mm 0.06 in1.5 mm
03:08 PM 66.7°F19.3°C 38.9°F3.8°C 36% 9.8 mph W15.8 kmh W 11.4 mph18.3 kmh 29.95 in1014.2 mb 0.00 in0.0 mm 0.00 in0.0 mm 0.06 in1.5 mm
03:12 PM 66.2°F19.0°C 38.5°F3.6°C 36% 8.3 mph W13.4 kmh W 10.7 mph17.2 kmh 29.95 in1014.2 mb 0.00 in0.0 mm 0.00 in0.0 mm 0.06 in1.5 mm
03:14 PM 65.3°F18.5°C 36.2°F2.3°C 34% 9.8 mph SW15.8 kmh SW 13.7 mph22.0 kmh 29.96 in1014.6 mb 0.00 in0.0 mm 0.00 in0.0 mm 0.06 in1.5 mm
03:18 PM 65.5°F18.6°C 38.5°F3.6°C 37% 4.5 mph W7.2 kmh W 6.9 mph11.1 kmh 29.95 in1014.2 mb 0.00 in0.0 mm 0.00 in0.0 mm 0.06 in1.5 mm
03:22 PM 65.7°F18.7°C 36.5°F2.5°C 34% 7.6 mph W12.2 kmh W 11.4 mph18.3 kmh 29.95 in1014.2 mb 0.00 in0.0 mm 0.00 in0.0 mm 0.06 in1.5 mm
03:26 PM 65.1°F18.4°C 36.8°F2.7°C 35% 9.8 mph WSW15.8 kmh WSW 10.7 mph17.2 kmh 29.95 in1014.2 mb 0.00 in0.0 mm 0.00 in0.0 mm 0.06 in1.5 mm
03:31 PM 65.3°F18.5°C 36.9°F2.7°C 35% 11.4 mph SW18.3 kmh SW 13.7 mph22.0 kmh 29.95 in1014.2 mb 0.00 in0.0 mm 0.00 in0.0 mm 0.06 in1.5 mm
03:35 PM 65.7°F18.7°C 38.0°F3.3°C 36% 8.3 mph W13.4 kmh W 10.7 mph17.2 kmh 29.95 in1014.2 mb 0.00 in0.0 mm 0.00 in0.0 mm 0.06 in1.5 mm
03:39 PM 65.5°F18.6°C 37.8°F3.2°C 36% 7.6 mph W12.2 kmh W 9.2 mph14.8 kmh 29.95 in1014.2 mb 0.00 in0.0 mm 0.00 in0.0 mm 0.06 in1.5 mm
03:43 PM 65.5°F18.6°C 38.5°F3.6°C 37% 7.6 mph NW12.2 kmh NW 8.3 mph13.4 kmh 29.95 in1014.2 mb 0.00 in0.0 mm 0.00 in0.0 mm 0.06 in1.5 mm
03:47 PM 65.3°F18.5°C 38.4°F3.6°C 37% 4.5 mph SW7.2 kmh SW 6.9 mph11.1 kmh 29.95 in1014.2 mb 0.00 in0.0 mm 0.00 in0.0 mm 0.06 in1.5 mm
03:51 PM 65.7°F18.7°C 38.0°F3.3°C 36% 8.3 mph WNW13.4 kmh WNW 11.4 mph18.3 kmh 29.95 in1014.2 mb 0.00 in0.0 mm 0.00 in0.0 mm 0.06 in1.5 mm
03:55 PM 64.9°F18.3°C 36.6°F2.6°C 35% 9.2 mph NW14.8 kmh NW 10.7 mph17.2 kmh 29.95 in1014.2 mb 0.00 in0.0 mm 0.00 in0.0 mm 0.06 in1.5 mm
03:59 PM 64.8°F18.2°C 37.9°F3.3°C 37% 5.4 mph SW8.7 kmh SW 7.6 mph12.2 kmh 29.95 in1014.2 mb 0.00 in0.0 mm 0.00 in0.0 mm 0.06 in1.5 mm
04:05 PM 65.1°F18.4°C 38.9°F3.8°C 38% 6.0 mph W9.7 kmh W 7.6 mph12.2 kmh 29.96 in1014.6 mb 0.00 in0.0 mm 0.00 in0.0 mm 0.06 in1.5 mm
04:07 PM 65.3°F18.5°C 36.9°F2.7°C 35% 6.9 mph S11.1 kmh S 8.3 mph13.4 kmh 29.96 in1014.6 mb 0.00 in0.0 mm 0.00 in0.0 mm 0.06 in1.5 mm
04:09 PM 64.9°F18.3°C 36.6°F2.6°C 35% 10.7 mph W17.2 kmh W 12.1 mph19.5 kmh 29.96 in1014.6 mb 0.00 in0.0 mm 0.00 in0.0 mm 0.06 in1.5 mm
04:13 PM 64.8°F18.2°C 36.5°F2.5°C 35% 6.0 mph NW9.7 kmh NW 8.3 mph13.4 kmh 29.95 in1014.2 mb 0.00 in0.0 mm 0.00 in0.0 mm 0.06 in1.5 mm
04:15 PM 64.4°F18.0°C 37.6°F3.1°C 37% 6.9 mph W11.1 kmh W 9.8 mph15.8 kmh 29.96 in1014.6 mb 0.00 in0.0 mm 0.00 in0.0 mm 0.06 in1.5 mm
04:19 PM 64.6°F18.1°C 37.7°F3.2°C 37% 5.4 mph NW8.7 kmh NW 7.6 mph12.2 kmh 29.95 in1014.2 mb 0.00 in0.0 mm 0.00 in0.0 mm 0.06 in1.5 mm
04:24 PM 64.6°F18.1°C 37.7°F3.2°C 37% 6.9 mph NW11.1 kmh NW 9.2 mph14.8 kmh 29.96 in1014.6 mb 0.00 in0.0 mm 0.00 in0.0 mm 0.06 in1.5 mm
04:27 PM 64.2°F17.9°C 38.1°F3.4°C 38% 7.6 mph WSW12.2 kmh WSW 9.2 mph14.8 kmh 29.96 in1014.6 mb 0.00 in0.0 mm 0.00 in0.0 mm 0.06 in1.5 mm
04:31 PM 64.0°F17.8°C 39.2°F4.0°C 40% 6.9 mph W11.1 kmh W 7.6 mph12.2 kmh 29.96 in1014.6 mb 0.00 in0.0 mm 0.00 in0.0 mm 0.06 in1.5 mm
04:35 PM 63.5°F17.5°C 38.7°F3.7°C 40% 8.3 mph SW13.4 kmh SW 9.8 mph15.8 kmh 29.96 in1014.6 mb 0.00 in0.0 mm 0.00 in0.0 mm 0.06 in1.5 mm
04:39 PM 63.3°F17.4°C 39.8°F4.3°C 42% 2.2 mph SW3.5 kmh SW 5.4 mph8.7 kmh 29.96 in1014.6 mb 0.00 in0.0 mm 0.00 in0.0 mm 0.06 in1.5 mm
04:43 PM 63.3°F17.4°C 39.8°F4.3°C 42% 3.8 mph W6.1 kmh W 5.4 mph8.7 kmh 29.95 in1014.2 mb 0.00 in0.0 mm 0.00 in0.0 mm 0.06 in1.5 mm
04:47 PM 63.0°F17.2°C 39.5°F4.2°C 42% 4.5 mph W7.2 kmh W 6.0 mph9.7 kmh 29.95 in1014.2 mb 0.00 in0.0 mm 0.00 in0.0 mm 0.06 in1.5 mm
04:55 PM 62.4°F16.9°C 39.0°F3.9°C 42% 7.6 mph SW12.2 kmh SW 10.7 mph17.2 kmh 29.96 in1014.6 mb 0.00 in0.0 mm 0.00 in0.0 mm 0.06 in1.5 mm
04:57 PM 62.2°F16.8°C 38.2°F3.4°C 41% 4.5 mph W7.2 kmh W 6.9 mph11.1 kmh 29.96 in1014.6 mb 0.00 in0.0 mm 0.00 in0.0 mm 0.06 in1.5 mm
05:01 PM 61.7°F16.5°C 38.4°F3.6°C 42% 6.0 mph SW9.7 kmh SW 7.6 mph12.2 kmh 29.95 in1014.2 mb 0.00 in0.0 mm 0.00 in0.0 mm 0.06 in1.5 mm
05:05 PM 61.2°F16.2°C 37.9°F3.3°C 42% 6.0 mph W9.7 kmh W 7.6 mph12.2 kmh 29.96 in1014.6 mb 0.00 in0.0 mm 0.00 in0.0 mm 0.06 in1.5 mm
05:07 PM 60.8°F16.0°C 37.6°F3.1°C 42% 6.9 mph W11.1 kmh W 8.3 mph13.4 kmh 29.96 in1014.6 mb 0.00 in0.0 mm 0.00 in0.0 mm 0.06 in1.5 mm
05:13 PM 60.8°F16.0°C 38.8°F3.8°C 44% 6.0 mph W9.7 kmh W 8.3 mph13.4 kmh 29.96 in1014.6 mb 0.00 in0.0 mm 0.00 in0.0 mm 0.06 in1.5 mm
05:17 PM 60.3°F15.7°C 37.7°F3.2°C 43% 9.2 mph SW14.8 kmh SW 11.4 mph18.3 kmh 29.97 in1014.9 mb 0.00 in0.0 mm 0.00 in0.0 mm 0.06 in1.5 mm
05:21 PM 60.1°F15.6°C 38.1°F3.4°C 44% 8.3 mph NW13.4 kmh NW 11.4 mph18.3 kmh 29.96 in1014.6 mb 0.00 in0.0 mm 0.00 in0.0 mm 0.06 in1.5 mm
05:25 PM 59.7°F15.4°C 37.8°F3.2°C 44% 5.4 mph NW8.7 kmh NW 7.6 mph12.2 kmh 29.96 in1014.6 mb 0.00 in0.0 mm 0.00 in0.0 mm 0.06 in1.5 mm
05:29 PM 59.2°F15.1°C 36.7°F2.6°C 43% 9.8 mph W15.8 kmh W 13.7 mph22.0 kmh 29.97 in1014.9 mb 0.00 in0.0 mm 0.00 in0.0 mm 0.06 in1.5 mm
05:33 PM 59.0°F15.0°C 37.1°F2.8°C 44% 4.5 mph NW7.2 kmh NW 7.6 mph12.2 kmh 29.96 in1014.6 mb 0.00 in0.0 mm 0.00 in0.0 mm 0.06 in1.5 mm
05:38 PM 58.6°F14.8°C 36.2°F2.3°C 43% 6.9 mph W11.1 kmh W 7.6 mph12.2 kmh 29.97 in1014.9 mb 0.00 in0.0 mm 0.00 in0.0 mm 0.06 in1.5 mm
05:42 PM 58.5°F14.7°C 37.2°F2.9°C 45% 0.7 mph SW1.1 kmh SW 2.2 mph3.5 kmh 29.97 in1014.9 mb 0.00 in0.0 mm 0.00 in0.0 mm 0.06 in1.5 mm
05:46 PM 58.5°F14.7°C 37.2°F2.9°C 45% 4.5 mph W7.2 kmh W 6.9 mph11.1 kmh 29.97 in1014.9 mb 0.00 in0.0 mm 0.00 in0.0 mm 0.06 in1.5 mm
05:50 PM 58.5°F14.7°C 37.2°F2.9°C 45% Calm Calm -- 29.97 in1014.9 mb 0.00 in0.0 mm 0.00 in0.0 mm 0.06 in1.5 mm
05:52 PM 58.3°F14.6°C 37.0°F2.8°C 45% 3.8 mph WSW6.1 kmh WSW 5.4 mph8.7 kmh 29.97 in1014.9 mb 0.00 in0.0 mm 0.00 in0.0 mm 0.06 in1.5 mm
05:56 PM 58.1°F14.5°C 36.3°F2.4°C 44% 6.0 mph W9.7 kmh W 7.6 mph12.2 kmh 29.97 in1014.9 mb 0.00 in0.0 mm 0.00 in0.0 mm 0.06 in1.5 mm
06:00 PM 57.7°F14.3°C 36.5°F2.5°C 45% 5.4 mph W8.7 kmh W 9.2 mph14.8 kmh 29.98 in1015.2 mb 0.00 in0.0 mm 0.00 in0.0 mm 0.06 in1.5 mm
06:04 PM 57.9°F14.4°C 35.6°F2.0°C 43% 6.9 mph W11.1 kmh W 8.3 mph13.4 kmh 29.98 in1015.2 mb 0.00 in0.0 mm 0.00 in0.0 mm 0.06 in1.5 mm
06:06 PM 57.7°F14.3°C 35.4°F1.9°C 43% 3.8 mph SW6.1 kmh SW 5.4 mph8.7 kmh 29.98 in1015.2 mb 0.00 in0.0 mm 0.00 in0.0 mm 0.06 in1.5 mm
06:10 PM 57.4°F14.1°C 35.7°F2.1°C 44% Calm Calm -- 29.98 in1015.2 mb 0.00 in0.0 mm 0.00 in0.0 mm 0.06 in1.5 mm
06:12 PM 57.0°F13.9°C 35.3°F1.8°C 44% 1.6 mph W2.6 kmh W 3.8 mph6.1 kmh 29.98 in1015.2 mb 0.00 in0.0 mm 0.00 in0.0 mm 0.06 in1.5 mm
06:16 PM 56.7°F13.7°C 35.6°F2.0°C 45% 3.8 mph W6.1 kmh W 4.5 mph7.2 kmh 29.98 in1015.2 mb 0.00 in0.0 mm 0.00 in0.0 mm 0.06 in1.5 mm
06:18 PM 56.3°F13.5°C 35.8°F2.1°C 46% Calm Calm -- 29.98 in1015.2 mb 0.00 in0.0 mm 0.00 in0.0 mm 0.06 in1.5 mm
06:22 PM 55.9°F13.3°C 36.0°F2.2°C 47% 1.6 mph W2.6 kmh W 3.8 mph6.1 kmh 29.98 in1015.2 mb 0.00 in0.0 mm 0.00 in0.0 mm 0.06 in1.5 mm
06:26 PM 55.8°F13.2°C 35.8°F2.1°C 47% Calm Calm 1.6 mph2.6 kmh 29.98 in1015.2 mb 0.00 in0.0 mm 0.00 in0.0 mm 0.06 in1.5 mm
06:29 PM 55.6°F13.1°C 36.2°F2.3°C 48% Calm Calm -- 29.99 in1015.6 mb 0.00 in0.0 mm 0.00 in0.0 mm 0.06 in1.5 mm
06:33 PM 55.2°F12.9°C 36.4°F2.4°C 49% Calm Calm 1.6 mph2.6 kmh 29.98 in1015.2 mb 0.00 in0.0 mm 0.00 in0.0 mm 0.06 in1.5 mm
06:37 PM 54.9°F12.7°C 36.6°F2.6°C 50% Calm Calm 2.2 mph3.5 kmh 29.98 in1015.2 mb 0.00 in0.0 mm 0.00 in0.0 mm 0.06 in1.5 mm
06:39 PM 54.5°F12.5°C 36.3°F2.4°C 50% 2.2 mph SW3.5 kmh SW 3.1 mph5.0 kmh 29.99 in1015.6 mb 0.00 in0.0 mm 0.00 in0.0 mm 0.06 in1.5 mm
06:43 PM 54.3°F12.4°C 37.6°F3.1°C 53% 0.7 mph NW1.1 kmh NW 2.2 mph3.5 kmh 29.99 in1015.6 mb 0.00 in0.0 mm 0.00 in0.0 mm 0.06 in1.5 mm
06:47 PM 54.1°F12.3°C 37.4°F3.0°C 53% Calm Calm -- 29.99 in1015.6 mb 0.00 in0.0 mm 0.00 in0.0 mm 0.06 in1.5 mm
06:49 PM 54.0°F12.2°C 37.2°F2.9°C 53% Calm Calm -- 29.99 in1015.6 mb 0.00 in0.0 mm 0.00 in0.0 mm 0.06 in1.5 mm
06:53 PM 53.6°F12.0°C 36.9°F2.7°C 53% Calm Calm -- 30.00 in1015.9 mb 0.00 in0.0 mm 0.00 in0.0 mm 0.06 in1.5 mm
06:55 PM 53.4°F11.9°C 36.7°F2.6°C 53% Calm Calm -- 29.99 in1015.6 mb 0.00 in0.0 mm 0.00 in0.0 mm 0.06 in1.5 mm
06:59 PM 53.2°F11.8°C 37.0°F2.8°C 54% 3.8 mph W6.1 kmh W 5.4 mph8.7 kmh 30.00 in1015.9 mb 0.00 in0.0 mm 0.00 in0.0 mm 0.06 in1.5 mm
07:03 PM 53.2°F11.8°C 37.0°F2.8°C 54% Calm Calm -- 30.00 in1015.9 mb 0.00 in0.0 mm 0.00 in0.0 mm 0.06 in1.5 mm
07:05 PM 53.2°F11.8°C 37.0°F2.8°C 54% Calm Calm -- 30.00 in1015.9 mb 0.00 in0.0 mm 0.00 in0.0 mm 0.06 in1.5 mm
07:07 PM 52.9°F11.6°C 36.7°F2.6°C 54% 5.4 mph SW8.7 kmh SW 6.9 mph11.1 kmh 30.00 in1015.9 mb 0.00 in0.0 mm 0.00 in0.0 mm 0.06 in1.5 mm
07:11 PM 52.7°F11.5°C 37.0°F2.8°C 55% 1.6 mph W2.6 kmh W 3.1 mph5.0 kmh 30.01 in1016.3 mb 0.00 in0.0 mm 0.00 in0.0 mm 0.06 in1.5 mm
07:15 PM 52.7°F11.5°C 36.5°F2.5°C 54% 4.5 mph W7.2 kmh W 5.4 mph8.7 kmh 30.01 in1016.3 mb 0.00 in0.0 mm 0.00 in0.0 mm 0.06 in1.5 mm
07:19 PM 52.5°F11.4°C 36.4°F2.4°C 54% 5.4 mph WNW8.7 kmh WNW 6.9 mph11.1 kmh 30.01 in1016.3 mb 0.00 in0.0 mm 0.00 in0.0 mm 0.06 in1.5 mm
07:23 PM 52.3°F11.3°C 36.2°F2.3°C 54% 0.7 mph 1.1 kmh 3.8 mph6.1 kmh 30.01 in1016.3 mb 0.00 in0.0 mm 0.00 in0.0 mm 0.06 in1.5 mm
07:28 PM 52.2°F11.2°C 36.5°F2.5°C 55% 2.2 mph WSW3.5 kmh WSW 4.5 mph7.2 kmh 30.02 in1016.6 mb 0.00 in0.0 mm 0.00 in0.0 mm 0.06 in1.5 mm
07:32 PM 52.0°F11.1°C 36.8°F2.7°C 56% 4.5 mph SW7.2 kmh SW 6.9 mph11.1 kmh 30.02 in1016.6 mb 0.00 in0.0 mm 0.00 in0.0 mm 0.06 in1.5 mm
07:38 PM 51.8°F11.0°C 37.9°F3.3°C 59% 2.2 mph SW3.5 kmh SW 4.5 mph7.2 kmh 30.02 in1016.6 mb 0.00 in0.0 mm 0.00 in0.0 mm 0.06 in1.5 mm
07:42 PM 51.6°F10.9°C 38.2°F3.4°C 60% Calm Calm -- 30.02 in1016.6 mb 0.00 in0.0 mm 0.00 in0.0 mm 0.06 in1.5 mm
07:46 PM 51.4°F10.8°C 38.4°F3.6°C 61% 2.2 mph W3.5 kmh W 4.5 mph7.2 kmh 30.03 in1016.9 mb 0.00 in0.0 mm 0.00 in0.0 mm 0.06 in1.5 mm
07:50 PM 51.3°F10.7°C 38.7°F3.7°C 62% 1.6 mph SW2.6 kmh SW 2.2 mph3.5 kmh 30.03 in1016.9 mb 0.00 in0.0 mm 0.00 in0.0 mm 0.06 in1.5 mm
07:54 PM 51.1°F10.6°C 38.9°F3.8°C 63% 3.8 mph SW6.1 kmh SW 6.0 mph9.7 kmh 30.04 in1017.3 mb 0.00 in0.0 mm 0.00 in0.0 mm 0.06 in1.5 mm
07:58 PM 51.1°F10.6°C 39.7°F4.3°C 65% 3.1 mph SW5.0 kmh SW 5.4 mph8.7 kmh 30.04 in1017.3 mb 0.00 in0.0 mm 0.00 in0.0 mm 0.06 in1.5 mm
08:02 PM 51.3°F10.7°C 40.3°F4.6°C 66% Calm Calm -- 30.04 in1017.3 mb 0.00 in0.0 mm 0.00 in0.0 mm 0.06 in1.5 mm
08:06 PM 51.1°F10.6°C 40.1°F4.5°C 66% 1.6 mph SW2.6 kmh SW 3.8 mph6.1 kmh 30.04 in1017.3 mb 0.00 in0.0 mm 0.00 in0.0 mm 0.06 in1.5 mm
08:11 PM 50.9°F10.5°C 40.3°F4.6°C 67% 0.7 mph WNW1.1 kmh WNW 4.5 mph7.2 kmh 30.05 in1017.6 mb 0.00 in0.0 mm 0.00 in0.0 mm 0.06 in1.5 mm
08:14 PM 50.9°F10.5°C 40.7°F4.8°C 68% 3.8 mph SW6.1 kmh SW 6.0 mph9.7 kmh 30.04 in1017.3 mb 0.00 in0.0 mm 0.00 in0.0 mm 0.06 in1.5 mm
08:18 PM 50.7°F10.4°C 40.6°F4.8°C 68% 3.1 mph NW5.0 kmh NW 5.4 mph8.7 kmh 30.05 in1017.6 mb 0.00 in0.0 mm 0.00 in0.0 mm 0.06 in1.5 mm
08:22 PM 50.5°F10.3°C 40.8°F4.9°C 69% Calm Calm -- 30.05 in1017.6 mb 0.00 in0.0 mm 0.00 in0.0 mm 0.06 in1.5 mm
08:26 PM 50.4°F10.2°C 40.2°F4.6°C 68% Calm Calm -- 30.06 in1017.9 mb 0.00 in0.0 mm 0.00 in0.0 mm 0.06 in1.5 mm
08:30 PM 50.2°F10.1°C 40.4°F4.7°C 69% Calm Calm -- 30.06 in1017.9 mb 0.00 in0.0 mm 0.00 in0.0 mm 0.06 in1.5 mm
08:34 PM 49.8°F9.9°C 40.1°F4.5°C 69% Calm Calm -- 30.07 in1018.3 mb 0.00 in0.0 mm 0.00 in0.0 mm 0.06 in1.5 mm
08:38 PM 49.5°F9.7°C 40.1°F4.5°C 70% Calm Calm -- 30.07 in1018.3 mb 0.00 in0.0 mm 0.00 in0.0 mm 0.06 in1.5 mm
08:43 PM 49.3°F9.6°C 39.9°F4.4°C 70% Calm Calm -- 30.07 in1018.3 mb 0.00 in0.0 mm 0.00 in0.0 mm 0.06 in1.5 mm
08:51 PM 48.9°F9.4°C 39.6°F4.2°C 70% Calm Calm -- 30.07 in1018.3 mb 0.00 in0.0 mm 0.00 in0.0 mm 0.06 in1.5 mm
08:55 PM 48.7°F9.3°C 39.4°F4.1°C 70% Calm Calm -- 30.07 in1018.3 mb 0.00 in0.0 mm 0.00 in0.0 mm 0.06 in1.5 mm
08:59 PM 48.6°F9.2°C 38.9°F3.8°C 69% 0.7 mph W1.1 kmh W 2.2 mph3.5 kmh 30.07 in1018.3 mb 0.00 in0.0 mm 0.00 in0.0 mm 0.06 in1.5 mm
09:03 PM 48.6°F9.2°C 38.9°F3.8°C 69% Calm Calm -- 30.07 in1018.3 mb 0.00 in0.0 mm 0.00 in0.0 mm 0.06 in1.5 mm
09:07 PM 48.2°F9.0°C 38.5°F3.6°C 69% Calm Calm -- 30.08 in1018.6 mb 0.00 in0.0 mm 0.00 in0.0 mm 0.06 in1.5 mm
09:11 PM 48.0°F8.9°C 38.3°F3.5°C 69% Calm Calm -- 30.08 in1018.6 mb 0.00 in0.0 mm 0.00 in0.0 mm 0.06 in1.5 mm
09:15 PM 47.8°F8.8°C 38.5°F3.6°C 70% Calm Calm 1.6 mph2.6 kmh 30.09 in1019.0 mb 0.00 in0.0 mm 0.00 in0.0 mm 0.06 in1.5 mm
09:19 PM 47.8°F8.8°C 38.5°F3.6°C 70% Calm Calm -- 30.09 in1019.0 mb 0.00 in0.0 mm 0.00 in0.0 mm 0.06 in1.5 mm
09:23 PM 47.8°F8.8°C 38.5°F3.6°C 70% Calm Calm -- 30.10 in1019.3 mb 0.00 in0.0 mm 0.00 in0.0 mm 0.06 in1.5 mm
09:27 PM 47.7°F8.7°C 38.4°F3.6°C 70% Calm Calm -- 30.10 in1019.3 mb 0.00 in0.0 mm 0.00 in0.0 mm 0.06 in1.5 mm
09:29 PM 47.5°F8.6°C 38.2°F3.4°C 70% Calm Calm -- 30.09 in1019.0 mb 0.00 in0.0 mm 0.00 in0.0 mm 0.06 in1.5 mm
09:33 PM 47.1°F8.4°C 37.5°F3.1°C 69% Calm Calm -- 30.10 in1019.3 mb 0.00 in0.0 mm 0.00 in0.0 mm 0.06 in1.5 mm
09:37 PM 46.9°F8.3°C 37.7°F3.2°C 70% Calm Calm -- 30.10 in1019.3 mb 0.00 in0.0 mm 0.00 in0.0 mm 0.06 in1.5 mm
09:42 PM 46.9°F8.3°C 37.7°F3.2°C 70% Calm Calm -- 30.10 in1019.3 mb 0.00 in0.0 mm 0.00 in0.0 mm 0.06 in1.5 mm
09:45 PM 46.8°F8.2°C 37.5°F3.1°C 70% Calm Calm -- 30.11 in1019.6 mb 0.00 in0.0 mm 0.00 in0.0 mm 0.06 in1.5 mm
09:49 PM 46.8°F8.2°C 37.9°F3.3°C 71% Calm Calm -- 30.11 in1019.6 mb 0.00 in0.0 mm 0.00 in0.0 mm 0.06 in1.5 mm
09:53 PM 46.6°F8.1°C 37.7°F3.2°C 71% Calm Calm -- 30.11 in1019.6 mb 0.00 in0.0 mm 0.00 in0.0 mm 0.06 in1.5 mm
09:57 PM 46.6°F8.1°C 37.7°F3.2°C 71% Calm Calm -- 30.11 in1019.6 mb 0.00 in0.0 mm 0.00 in0.0 mm 0.06 in1.5 mm
10:01 PM 46.4°F8.0°C 37.5°F3.1°C 71% Calm Calm -- 30.11 in1019.6 mb 0.00 in0.0 mm 0.00 in0.0 mm 0.06 in1.5 mm
10:05 PM 46.2°F7.9°C 37.3°F2.9°C 71% Calm Calm -- 30.11 in1019.6 mb 0.00 in0.0 mm 0.00 in0.0 mm 0.06 in1.5 mm
10:09 PM 46.0°F7.8°C 37.5°F3.1°C 72% Calm Calm -- 30.11 in1019.6 mb 0.00 in0.0 mm 0.00 in0.0 mm 0.06 in1.5 mm
10:13 PM 46.2°F7.9°C 37.7°F3.2°C 72% 3.8 mph W6.1 kmh W 5.4 mph8.7 kmh 30.12 in1020.0 mb 0.00 in0.0 mm 0.00 in0.0 mm 0.06 in1.5 mm
10:17 PM 46.4°F8.0°C 37.9°F3.3°C 72% Calm Calm -- 30.11 in1019.6 mb 0.00 in0.0 mm 0.00 in0.0 mm 0.06 in1.5 mm
10:21 PM 46.2°F7.9°C 37.7°F3.2°C 72% Calm Calm -- 30.12 in1020.0 mb 0.00 in0.0 mm 0.00 in0.0 mm 0.06 in1.5 mm
10:25 PM 46.2°F7.9°C 37.7°F3.2°C 72% Calm Calm -- 30.12 in1020.0 mb 0.00 in0.0 mm 0.00 in0.0 mm 0.06 in1.5 mm
10:29 PM 46.0°F7.8°C 37.5°F3.1°C 72% Calm Calm -- 30.11 in1019.6 mb 0.00 in0.0 mm 0.00 in0.0 mm 0.06 in1.5 mm
10:33 PM 46.0°F7.8°C 37.9°F3.3°C 73% Calm Calm -- 30.12 in1020.0 mb 0.00 in0.0 mm 0.00 in0.0 mm 0.06 in1.5 mm
10:37 PM 45.9°F7.7°C 37.7°F3.2°C 73% Calm Calm -- 30.12 in1020.0 mb 0.00 in0.0 mm 0.00 in0.0 mm 0.06 in1.5 mm
10:41 PM 45.9°F7.7°C 37.7°F3.2°C 73% Calm Calm -- 30.13 in1020.3 mb 0.00 in0.0 mm 0.00 in0.0 mm 0.06 in1.5 mm
10:45 PM 45.9°F7.7°C 38.1°F3.4°C 74% Calm Calm -- 30.12 in1020.0 mb 0.00 in0.0 mm 0.00 in0.0 mm 0.06 in1.5 mm
10:49 PM 45.7°F7.6°C 37.9°F3.3°C 74% Calm Calm -- 30.13 in1020.3 mb 0.00 in0.0 mm 0.00 in0.0 mm 0.06 in1.5 mm
10:54 PM 45.5°F7.5°C 38.0°F3.3°C 75% Calm Calm -- 30.13 in1020.3 mb 0.00 in0.0 mm 0.00 in0.0 mm 0.06 in1.5 mm
10:58 PM 45.5°F7.5°C 38.4°F3.6°C 76% Calm Calm 2.2 mph3.5 kmh 30.12 in1020.0 mb 0.00 in0.0 mm 0.00 in0.0 mm 0.06 in1.5 mm
11:01 PM 45.5°F7.5°C 38.7°F3.7°C 77% Calm Calm -- 30.12 in1020.0 mb 0.00 in0.0 mm 0.00 in0.0 mm 0.06 in1.5 mm
11:05 PM 45.5°F7.5°C 39.1°F3.9°C 78% Calm Calm -- 30.13 in1020.3 mb 0.00 in0.0 mm 0.00 in0.0 mm 0.09 in2.3 mm
11:09 PM 45.5°F7.5°C 39.1°F3.9°C 78% Calm Calm -- 30.13 in1020.3 mb 0.00 in0.0 mm 0.00 in0.0 mm 0.09 in2.3 mm
11:14 PM 45.5°F7.5°C 39.1°F3.9°C 78% Calm Calm -- 30.13 in1020.3 mb 0.00 in0.0 mm 0.00 in0.0 mm 0.09 in2.3 mm
11:18 PM 45.5°F7.5°C 39.4°F4.1°C 79% Calm Calm 2.2 mph3.5 kmh 30.13 in1020.3 mb 0.00 in0.0 mm 0.00 in0.0 mm 0.09 in2.3 mm
11:21 PM 45.5°F7.5°C 39.7°F4.3°C 80% Calm Calm -- 30.13 in1020.3 mb 0.00 in0.0 mm 0.00 in0.0 mm 0.09 in2.3 mm
11:25 PM 45.7°F7.6°C 39.9°F4.4°C 80% Calm Calm -- 30.13 in1020.3 mb 0.00 in0.0 mm 0.00 in0.0 mm 0.09 in2.3 mm
11:30 PM 45.5°F7.5°C 39.7°F4.3°C 80% Calm Calm -- 30.14 in1020.7 mb 0.00 in0.0 mm 0.00 in0.0 mm 0.09 in2.3 mm
11:33 PM 45.3°F7.4°C 41.1°F5.1°C 85% Calm Calm -- 30.13 in1020.3 mb 0.00 in0.0 mm 0.00 in0.0 mm 0.09 in2.3 mm
11:38 PM 45.0°F7.2°C 40.4°F4.7°C 84% Calm Calm -- 30.13 in1020.3 mb 0.00 in0.0 mm 0.00 in0.0 mm 0.09 in2.3 mm
11:42 PM 45.0°F7.2°C 40.7°F4.8°C 85% Calm Calm -- 30.14 in1020.7 mb 0.00 in0.0 mm 0.00 in0.0 mm 0.09 in2.3 mm
11:46 PM 44.8°F7.1°C 40.6°F4.8°C 85% Calm Calm -- 30.14 in1020.7 mb 0.00 in0.0 mm 0.00 in0.0 mm 0.09 in2.3 mm
11:50 PM 44.6°F7.0°C 40.4°F4.7°C 85% Calm Calm -- 30.13 in1020.3 mb 0.00 in0.0 mm 0.00 in0.0 mm 0.09 in2.3 mm
11:54 PM 44.6°F7.0°C 40.4°F4.7°C 85% Calm Calm -- 30.13 in1020.3 mb 0.00 in0.0 mm 0.00 in0.0 mm 0.09 in2.3 mm
11:58 PM 44.4°F6.9°C 40.5°F4.7°C 86% Calm Calm -- 30.14 in1020.7 mb 0.00 in0.0 mm 0.00 in0.0 mm 0.09 in2.3 mm